createdAt,value
2022-09-07T00:00:42.010Z,39.45
2022-09-07T00:03:09.235Z,39.83
2022-09-07T00:05:43.226Z,40.58
2022-09-07T00:08:10.332Z,40.55
2022-09-07T00:10:37.306Z,43.38
2022-09-07T00:13:05.244Z,39.40
2022-09-07T00:15:32.429Z,42.75
2022-09-07T00:17:59.983Z,41.13
2022-09-07T00:23:12.031Z,42.58
2022-09-07T00:25:39.717Z,49.95
2022-09-07T00:28:08.186Z,40.03
2022-09-07T00:30:40.122Z,38.80
2022-09-07T00:33:06.897Z,44.15
2022-09-07T00:35:33.698Z,39.63
2022-09-07T00:38:00.525Z,42.15
2022-09-07T00:40:27.293Z,41.85
2022-09-07T00:42:54.039Z,39.10
2022-09-07T00:45:21.856Z,38.25
2022-09-07T00:48:03.291Z,42.28
2022-09-07T00:50:43.500Z,42.75
2022-09-07T00:53:10.223Z,44.42
2022-09-07T00:55:38.334Z,39.97
2022-09-07T00:58:07.165Z,42.67
2022-09-07T01:00:34.121Z,40.28
2022-09-07T01:03:02.086Z,37.85
2022-09-07T01:05:35.526Z,42.70
2022-09-07T01:08:03.152Z,41.72
2022-09-07T01:10:33.958Z,41.97
2022-09-07T01:13:00.966Z,42.38
2022-09-07T01:15:48.163Z,44.15
2022-09-07T01:18:50.224Z,44.53
2022-09-07T01:21:27.307Z,41.35
2022-09-07T01:24:01.858Z,39.17
2022-09-07T01:26:28.599Z,39.75
2022-09-07T01:29:24.041Z,39.55
2022-09-07T01:32:12.709Z,38.13
2022-09-07T01:34:41.798Z,36.60
2022-09-07T01:37:17.053Z,40.35
2022-09-07T01:39:55.950Z,40.53
2022-09-07T01:42:30.656Z,33.45
2022-09-07T01:45:03.463Z,41.35
2022-09-07T01:47:36.053Z,32.78
2022-09-07T01:50:16.177Z,28.88
2022-09-07T01:52:54.143Z,31.95
2022-09-07T01:55:36.517Z,29.80
2022-09-07T01:58:19.715Z,25.27
2022-09-07T02:00:53.841Z,21.92
2022-09-07T02:03:35.537Z,25.05
2022-09-07T02:06:10.245Z,26.23
2022-09-07T02:08:46.582Z,20.27
2022-09-07T02:11:43.985Z,16.38
2022-09-07T02:14:33.713Z,19.45
2022-09-07T02:17:03.617Z,20.88
2022-09-07T02:19:38.046Z,17.75
2022-09-07T02:22:13.578Z,19.83
2022-09-07T02:24:46.236Z,14.73
2022-09-07T02:27:26.797Z,15.90
2022-09-07T02:29:54.196Z,18.30
2022-09-07T02:32:21.063Z,18.65
2022-09-07T02:34:47.881Z,15.93
2022-09-07T02:37:17.081Z,14.93
2022-09-07T02:39:43.975Z,14.88
2022-09-07T02:42:10.816Z,13.35
2022-09-07T02:44:41.058Z,13.13
2022-09-07T02:47:20.580Z,13.68
2022-09-07T02:49:47.330Z,11.02
2022-09-07T02:52:40.685Z,13.82
2022-09-07T02:55:40.290Z,11.60
2022-09-07T02:58:13.130Z,11.30
2022-09-07T03:00:50.174Z,9.32
2022-09-07T03:03:33.424Z,14.38
2022-09-07T03:06:04.327Z,13.48
2022-09-07T03:08:31.225Z,9.20
2022-09-07T03:10:59.146Z,9.88
2022-09-07T03:13:28.419Z,7.93
2022-09-07T03:15:56.492Z,9.75
2022-09-07T03:18:25.283Z,9.52
2022-09-07T03:20:52.497Z,8.18
2022-09-07T03:23:19.340Z,9.45
2022-09-07T03:25:47.585Z,7.18
2022-09-07T03:28:14.471Z,7.03
2022-09-07T03:30:47.201Z,9.90
2022-09-07T03:33:16.015Z,6.65
2022-09-07T03:35:56.139Z,11.07
2022-09-07T03:38:22.981Z,10.05
2022-09-07T03:41:03.453Z,7.15
2022-09-07T03:43:31.082Z,9.90
2022-09-07T03:46:06.074Z,14.27
2022-09-07T03:48:34.590Z,10.27
2022-09-07T03:51:07.670Z,11.60
2022-09-07T03:53:37.166Z,7.88
2022-09-07T03:56:09.310Z,11.73
2022-09-07T03:58:36.406Z,8.80
2022-09-07T04:01:09.316Z,7.68
2022-09-07T04:03:36.834Z,7.10
2022-09-07T04:06:04.508Z,9.20
2022-09-07T04:08:33.662Z,10.48
2022-09-07T04:11:02.479Z,7.38
2022-09-07T04:13:30.503Z,6.15
2022-09-07T04:15:57.703Z,9.30
2022-09-07T04:18:25.239Z,12.45
2022-09-07T04:20:52.419Z,6.25
2022-09-07T04:23:20.149Z,9.25
2022-09-07T04:25:51.162Z,8.52
2022-09-07T04:28:19.536Z,6.28
2022-09-07T04:30:47.101Z,6.22
2022-09-07T04:33:14.213Z,6.90
2022-09-07T04:35:42.607Z,4.80
2022-09-07T04:38:13.925Z,6.35
2022-09-07T04:40:40.879Z,6.82
2022-09-07T04:43:09.588Z,9.00
2022-09-07T04:45:37.597Z,6.63
2022-09-07T04:48:05.440Z,6.43
2022-09-07T04:50:32.851Z,6.45
2022-09-07T04:52:59.781Z,14.30
2022-09-07T04:55:26.563Z,10.07
2022-09-07T04:57:53.388Z,5.63
2022-09-07T05:00:20.294Z,6.80
2022-09-07T05:02:47.282Z,7.45
2022-09-07T05:05:14.345Z,7.13
2022-09-07T05:07:41.234Z,6.75
2022-09-07T05:10:08.408Z,9.60
2022-09-07T05:12:35.351Z,7.60
2022-09-07T05:15:02.213Z,5.63
2022-09-07T05:17:31.116Z,10.93
2022-09-07T05:19:58.476Z,6.97
2022-09-07T05:22:25.405Z,8.80
2022-09-07T05:24:52.301Z,6.47
2022-09-07T05:27:19.386Z,7.13
2022-09-07T05:30:03.839Z,7.13
2022-09-07T05:32:32.219Z,5.25
2022-09-07T05:34:59.117Z,5.95
2022-09-07T05:37:25.928Z,6.53
2022-09-07T05:39:57.149Z,7.32
2022-09-07T05:42:24.241Z,5.80
2022-09-07T05:44:51.202Z,6.22
2022-09-07T05:47:18.065Z,8.82
2022-09-07T05:49:44.854Z,12.15
2022-09-07T05:52:11.747Z,6.45
2022-09-07T05:54:38.798Z,7.38
2022-09-07T05:57:07.303Z,5.85
2022-09-07T05:59:34.325Z,6.88
2022-09-07T06:02:01.506Z,7.38
2022-09-07T06:04:28.623Z,6.72
2022-09-07T06:12:29.299Z,6.90
2022-09-07T06:14:56.138Z,7.95
2022-09-07T06:17:22.909Z,8.52
2022-09-07T06:19:49.699Z,14.35
2022-09-07T06:22:16.483Z,5.50
2022-09-07T06:24:43.269Z,7.20
2022-09-07T06:27:10.196Z,6.75
2022-09-07T06:29:37.024Z,6.60
2022-09-07T06:34:51.063Z,9.60
2022-09-07T06:37:17.931Z,5.78
2022-09-07T06:39:44.806Z,5.57
2022-09-07T06:42:11.952Z,7.55
2022-09-07T06:44:38.907Z,5.97
2022-09-07T06:47:05.751Z,4.75
2022-09-07T06:49:32.626Z,4.28
2022-09-07T06:51:59.628Z,5.60
2022-09-07T06:57:13.290Z,6.20
2022-09-07T06:59:40.066Z,5.20
2022-09-07T07:02:08.173Z,3.85
2022-09-07T07:04:40.168Z,4.15
2022-09-07T07:07:11.833Z,3.97
2022-09-07T07:09:39.016Z,3.78
2022-09-07T07:12:06.252Z,4.95
2022-09-07T07:14:34.664Z,3.70
2022-09-07T07:17:03.535Z,2.90
2022-09-07T07:19:30.425Z,7.45
2022-09-07T07:24:44.064Z,3.58
2022-09-07T07:27:10.874Z,3.83
2022-09-07T07:29:37.654Z,4.22
2022-09-07T07:32:04.542Z,5.55
2022-09-07T07:34:31.326Z,7.03
2022-09-07T07:36:58.129Z,4.10
2022-09-07T07:42:12.429Z,5.25
2022-09-07T07:44:39.310Z,2.90
2022-09-07T07:47:06.206Z,2.95
2022-09-07T07:49:33.126Z,3.67
2022-09-07T07:54:46.957Z,6.43
2022-09-07T07:57:14.159Z,2.20
2022-09-07T07:59:40.897Z,4.55
2022-09-07T08:02:13.439Z,3.22
2022-09-07T08:04:40.345Z,4.65
2022-09-07T08:07:10.624Z,2.05
2022-09-07T08:09:43.083Z,2.92
2022-09-07T08:12:12.192Z,5.40
2022-09-07T08:14:43.231Z,2.67
2022-09-07T08:17:11.940Z,5.85
2022-09-07T08:19:39.022Z,2.85
2022-09-07T08:22:06.543Z,6.25
2022-09-07T08:24:33.491Z,2.30
2022-09-07T08:27:00.375Z,3.95
2022-09-07T08:29:27.411Z,3.58
2022-09-07T08:31:54.339Z,4.00
2022-09-07T08:34:21.968Z,3.85
2022-09-07T08:36:49.014Z,5.25
2022-09-07T08:39:15.857Z,3.28
2022-09-07T08:42:03.399Z,6.18
2022-09-07T08:44:38.661Z,3.50
2022-09-07T08:47:16.603Z,2.80
2022-09-07T08:50:01.348Z,1.67
2022-09-07T08:52:38.471Z,1.55
2022-09-07T08:55:21.433Z,2.28
2022-09-07T08:58:01.940Z,2.53
2022-09-07T09:00:29.780Z,2.92
2022-09-07T09:05:58.748Z,2.95
2022-09-07T09:08:31.587Z,1.50
2022-09-07T09:11:22.142Z,3.58
2022-09-07T09:14:02.398Z,4.55
2022-09-07T09:16:42.765Z,4.40
2022-09-07T09:19:35.197Z,3.33
2022-09-07T09:22:20.917Z,5.75
2022-09-07T09:25:03.096Z,1.90
2022-09-07T09:27:29.957Z,1.70
2022-09-07T09:29:56.703Z,2.38
2022-09-07T09:32:44.210Z,2.72
2022-09-07T09:35:16.155Z,5.20
2022-09-07T09:37:44.216Z,4.97
2022-09-07T09:40:21.484Z,1.67
2022-09-07T09:42:57.998Z,4.07
2022-09-07T09:45:29.044Z,2.35
2022-09-07T09:47:57.876Z,3.55
2022-09-07T09:53:34.271Z,3.65
2022-09-07T09:56:03.418Z,4.25
2022-09-07T10:01:27.138Z,3.17
2022-09-07T10:06:26.850Z,2.13
2022-09-07T10:09:00.170Z,1.88
2022-09-07T10:14:43.717Z,3.65
2022-09-07T10:17:21.405Z,1.77
2022-09-07T10:19:49.638Z,3.03
2022-09-07T10:22:32.130Z,4.25
2022-09-07T10:25:00.914Z,2.45
2022-09-07T10:27:27.630Z,1.92
2022-09-07T10:29:55.387Z,3.28
2022-09-07T10:32:30.838Z,3.60
2022-09-07T10:35:16.248Z,5.05
2022-09-07T10:38:11.525Z,3.42
2022-09-07T10:40:45.332Z,2.55
2022-09-07T10:43:32.421Z,2.30
2022-09-07T10:47:03.660Z,1.92
2022-09-07T10:49:36.527Z,3.08
2022-09-07T10:52:09.338Z,4.07
2022-09-07T10:54:59.237Z,2.03
2022-09-07T10:57:40.610Z,4.03
2022-09-07T11:00:18.607Z,3.45
2022-09-07T11:06:12.590Z,3.22
2022-09-07T11:09:17.544Z,2.80
2022-09-07T11:12:02.048Z,4.40
2022-09-07T11:14:37.170Z,5.03
2022-09-07T11:17:13.146Z,3.60
2022-09-07T11:19:55.395Z,3.90
2022-09-07T11:22:44.779Z,1.15
2022-09-07T11:25:30.388Z,3.85
2022-09-07T11:28:23.088Z,1.95
2022-09-07T11:31:00.040Z,3.50
2022-09-07T11:33:35.351Z,1.90
2022-09-07T11:36:12.164Z,3.83
2022-09-07T11:38:45.589Z,3.80
2022-09-07T11:41:29.531Z,3.42
2022-09-07T11:44:01.934Z,3.60
2022-09-07T11:46:32.516Z,3.60
2022-09-07T11:48:59.980Z,4.55
2022-09-07T11:51:39.979Z,3.55
2022-09-07T11:54:46.165Z,1.60
2022-09-07T11:57:15.859Z,3.55
2022-09-07T12:00:05.688Z,1.58
2022-09-07T12:03:00.279Z,4.30
2022-09-07T12:05:58.295Z,2.97
2022-09-07T12:08:54.122Z,3.25
2022-09-07T12:11:24.347Z,4.00
2022-09-07T12:14:15.344Z,2.10
2022-09-07T12:17:19.068Z,3.10
2022-09-07T12:19:46.184Z,2.67
2022-09-07T12:22:23.142Z,3.67
2022-09-07T12:24:51.375Z,4.72
2022-09-07T12:27:20.923Z,1.98
2022-09-07T12:29:50.227Z,3.85
2022-09-07T12:32:56.850Z,6.88
2022-09-07T12:35:33.400Z,5.72
2022-09-07T12:40:47.082Z,4.22
2022-09-07T12:43:15.920Z,2.97
2022-09-07T12:45:42.664Z,3.65
2022-09-07T12:48:15.243Z,5.05
2022-09-07T12:51:13.235Z,2.50
2022-09-07T12:54:07.829Z,2.50
2022-09-07T12:57:34.935Z,3.63
2022-09-07T13:00:36.543Z,4.70
2022-09-07T13:03:49.425Z,1.85
2022-09-07T13:05:59.081Z,3.45
2022-09-07T13:08:47.246Z,8.90
2022-09-07T13:11:19.946Z,4.50
2022-09-07T13:14:16.287Z,3.58
2022-09-07T13:19:50.189Z,8.02
2022-09-07T13:22:35.487Z,5.25
2022-09-07T13:25:27.173Z,2.65
2022-09-07T13:28:06.094Z,4.18
2022-09-07T13:31:07.400Z,3.78
2022-09-07T13:33:42.732Z,2.17
2022-09-07T13:36:57.361Z,4.47
2022-09-07T13:39:24.398Z,3.53
2022-09-07T13:41:55.317Z,3.67
2022-09-07T13:44:29.142Z,3.33
2022-09-07T13:46:58.851Z,4.55
2022-09-07T13:49:50.450Z,5.45
2022-09-07T13:52:47.251Z,3.15
2022-09-07T13:55:37.045Z,3.38
2022-09-07T13:58:17.988Z,2.92
2022-09-07T14:00:54.097Z,3.42
2022-09-07T14:03:23.281Z,5.80
2022-09-07T14:06:10.019Z,6.47
2022-09-07T14:08:39.817Z,4.25
2022-09-07T14:11:18.269Z,5.07
2022-09-07T14:13:45.124Z,4.68
2022-09-07T14:16:11.994Z,4.80
2022-09-07T14:18:40.706Z,4.13
2022-09-07T14:21:09.605Z,4.32
2022-09-07T14:23:36.793Z,4.10
2022-09-07T14:26:22.502Z,4.95
2022-09-07T14:28:51.718Z,3.70
2022-09-07T14:31:21.056Z,7.82
2022-09-07T14:33:57.720Z,5.63
2022-09-07T14:36:44.645Z,4.13
2022-09-07T14:39:17.899Z,3.85
2022-09-07T14:41:45.181Z,5.10
2022-09-07T14:44:28.118Z,9.88
2022-09-07T14:46:57.310Z,27.25
2022-09-07T14:49:25.127Z,6.53
2022-09-07T14:51:53.862Z,4.85
2022-09-07T14:54:25.152Z,4.53
2022-09-07T14:57:30.497Z,4.65
2022-09-07T14:59:58.021Z,3.90
2022-09-07T15:02:36.757Z,6.00
2022-09-07T15:05:20.831Z,6.75
2022-09-07T15:07:51.803Z,3.88
2022-09-07T15:10:21.584Z,7.10
2022-09-07T15:12:50.434Z,5.47
2022-09-07T15:15:31.109Z,6.15
2022-09-07T15:18:07.442Z,4.50
2022-09-07T15:20:36.856Z,2.60
2022-09-07T15:23:11.259Z,10.30
2022-09-07T15:25:40.434Z,7.45
2022-09-07T15:29:08.167Z,7.10
2022-09-07T15:33:49.477Z,9.93
2022-09-07T15:36:17.286Z,5.10
2022-09-07T15:39:00.043Z,4.30
2022-09-07T15:41:27.647Z,6.35
2022-09-07T15:43:56.620Z,6.85
2022-09-07T15:46:25.021Z,5.25
2022-09-07T15:48:56.145Z,5.10
2022-09-07T15:54:13.813Z,6.05
2022-09-07T15:56:43.991Z,7.28
2022-09-07T15:59:30.017Z,6.60
2022-09-07T16:01:58.079Z,12.35
2022-09-07T16:04:25.372Z,11.73
2022-09-07T16:06:52.320Z,9.13
2022-09-07T16:09:21.854Z,6.15
2022-09-07T16:11:50.100Z,7.63
2022-09-07T16:14:17.701Z,7.18
2022-09-07T16:19:34.918Z,12.45
2022-09-07T16:22:03.214Z,5.10
2022-09-07T16:24:30.112Z,5.72
2022-09-07T16:26:57.005Z,4.43
2022-09-07T16:29:24.537Z,6.55
2022-09-07T16:34:39.709Z,4.90
2022-09-07T16:37:07.415Z,5.72
2022-09-07T16:39:34.632Z,7.10
2022-09-07T16:42:01.610Z,6.28
2022-09-07T16:44:28.552Z,4.47
2022-09-07T16:46:55.323Z,4.38
2022-09-07T16:49:22.690Z,8.38
2022-09-07T16:51:49.917Z,12.48
2022-09-07T16:54:17.894Z,10.77
2022-09-07T16:56:44.738Z,8.30
2022-09-07T16:59:16.583Z,5.90
2022-09-07T17:01:43.405Z,6.70
2022-09-07T17:04:11.533Z,5.00
2022-09-07T17:06:39.662Z,5.72
2022-09-07T17:09:06.867Z,3.75
2022-09-07T17:11:35.961Z,6.82
2022-09-07T17:14:05.122Z,10.70
2022-09-07T17:16:35.199Z,8.80
2022-09-07T17:21:53.762Z,12.15
2022-09-07T17:24:21.080Z,6.65
2022-09-07T17:26:48.239Z,5.82
2022-09-07T17:29:15.366Z,6.85
2022-09-07T17:34:30.461Z,5.45
2022-09-07T17:36:57.678Z,5.03
2022-09-07T17:39:24.566Z,6.43
2022-09-07T17:41:52.581Z,6.70
2022-09-07T17:44:20.158Z,6.45
2022-09-07T17:46:46.909Z,7.97
2022-09-07T17:49:16.556Z,6.25
2022-09-07T17:51:44.861Z,11.65
2022-09-07T17:54:17.501Z,7.03
2022-09-07T17:56:45.301Z,8.68
2022-09-07T18:01:59.676Z,11.48
2022-09-07T18:04:28.220Z,9.73
2022-09-07T18:06:55.230Z,8.20
2022-09-07T18:09:22.077Z,9.27
2022-09-07T18:11:49.845Z,10.10
2022-09-07T18:14:18.566Z,7.65
2022-09-07T18:16:46.993Z,10.15
2022-09-07T18:19:14.213Z,7.38
2022-09-07T18:21:42.802Z,9.20
2022-09-07T18:24:18.994Z,7.40
2022-09-07T18:26:51.495Z,6.50
2022-09-07T18:29:39.178Z,6.07
2022-09-07T18:32:09.717Z,11.25
2022-09-07T18:34:40.597Z,7.15
2022-09-07T18:37:08.634Z,9.00
2022-09-07T18:39:36.006Z,7.82
2022-09-07T18:42:03.273Z,7.28
2022-09-07T18:47:23.170Z,7.35
2022-09-07T18:49:54.882Z,8.75
2022-09-07T18:55:10.032Z,5.70
2022-09-07T18:57:37.313Z,10.30
2022-09-07T19:00:06.335Z,7.47
2022-09-07T19:02:33.597Z,6.63
2022-09-07T19:07:47.274Z,8.23
2022-09-07T19:10:16.418Z,11.65
2022-09-07T19:12:45.891Z,6.28
2022-09-07T19:15:13.638Z,7.13
2022-09-07T19:17:40.547Z,5.63
2022-09-07T19:20:07.854Z,7.57
2022-09-07T19:22:34.624Z,8.45
2022-09-07T19:25:01.485Z,11.77
2022-09-07T19:27:28.380Z,11.07
2022-09-07T19:29:55.147Z,10.88
2022-09-07T19:32:22.094Z,10.10
2022-09-07T19:34:54.370Z,7.68
2022-09-07T19:37:25.979Z,8.18
2022-09-07T19:39:55.141Z,8.35
2022-09-07T19:42:23.629Z,8.55
2022-09-07T19:44:51.065Z,8.10
2022-09-07T19:47:18.311Z,7.78
2022-09-07T19:49:45.176Z,6.13
2022-09-07T19:52:12.259Z,10.82
2022-09-07T19:54:39.402Z,11.32
2022-09-07T19:57:06.866Z,8.32
2022-09-07T19:59:33.664Z,10.18
2022-09-07T20:02:00.500Z,7.22
2022-09-07T20:04:28.241Z,9.75
2022-09-07T20:06:55.199Z,7.22
2022-09-07T20:09:21.975Z,7.00
2022-09-07T20:11:48.798Z,10.20
2022-09-07T20:14:16.471Z,5.97
2022-09-07T20:16:46.442Z,9.25
2022-09-07T20:19:15.423Z,9.25
2022-09-07T20:21:43.063Z,23.60
2022-09-07T20:24:14.689Z,15.18
2022-09-07T20:26:41.565Z,8.18
2022-09-07T20:29:26.575Z,8.48
2022-09-07T20:31:56.080Z,7.45
2022-09-07T20:34:23.043Z,7.68
2022-09-07T20:36:50.826Z,11.55
2022-09-07T20:39:18.353Z,9.63
2022-09-07T20:41:45.491Z,10.80
2022-09-07T20:44:12.749Z,6.97
2022-09-07T20:46:39.611Z,9.95
2022-09-07T20:49:07.029Z,10.60
2022-09-07T20:51:33.796Z,10.35
2022-09-07T20:54:00.758Z,7.75
2022-09-07T20:56:28.667Z,14.77
2022-09-07T20:58:57.750Z,9.20
2022-09-07T21:01:24.941Z,13.48
2022-09-07T21:03:53.896Z,20.15
2022-09-07T21:06:22.550Z,14.68
2022-09-07T21:08:50.587Z,19.65
2022-09-07T21:11:23.795Z,20.73
2022-09-07T21:13:58.809Z,24.52
2022-09-07T21:16:26.571Z,26.80
2022-09-07T21:18:58.280Z,22.45
2022-09-07T21:21:27.315Z,23.27
2022-09-07T21:23:59.682Z,17.40
2022-09-07T21:26:28.436Z,14.02
2022-09-07T21:28:59.762Z,13.60
2022-09-07T21:31:27.500Z,14.93
2022-09-07T21:33:59.641Z,17.25
2022-09-07T21:36:27.185Z,19.23
2022-09-07T21:38:54.766Z,25.15
2022-09-07T21:41:24.355Z,17.48
2022-09-07T21:44:02.794Z,17.25
2022-09-07T21:46:32.045Z,17.13
2022-09-07T21:48:59.859Z,15.07
2022-09-07T21:51:27.304Z,17.17
2022-09-07T21:53:55.553Z,14.23
2022-09-07T21:56:22.896Z,14.85
2022-09-07T21:58:55.146Z,13.48
2022-09-07T22:01:23.391Z,12.98
2022-09-07T22:04:04.520Z,17.48
2022-09-07T22:06:32.472Z,11.68
2022-09-07T22:09:00.667Z,11.43
2022-09-07T22:11:29.593Z,13.52
2022-09-07T22:14:01.883Z,18.77
2022-09-07T22:16:30.535Z,13.45
2022-09-07T22:18:57.561Z,15.68
2022-09-07T22:21:26.963Z,16.05
2022-09-07T22:23:57.325Z,17.08
2022-09-07T22:26:26.963Z,15.10
2022-09-07T22:28:54.446Z,12.32
2022-09-07T22:31:22.653Z,14.40
2022-09-07T22:33:50.483Z,16.50
2022-09-07T22:36:23.050Z,13.18
2022-09-07T22:38:53.023Z,14.23
2022-09-07T22:41:21.896Z,17.73
2022-09-07T22:43:50.939Z,17.40
2022-09-07T22:46:19.806Z,15.88
2022-09-07T22:48:46.815Z,13.82
2022-09-07T22:51:13.702Z,12.73
2022-09-07T22:53:41.773Z,13.68
2022-09-07T22:56:18.586Z,12.13
2022-09-07T22:58:47.423Z,13.60
2022-09-07T23:01:15.079Z,12.65
2022-09-07T23:03:43.134Z,15.48
2022-09-07T23:06:36.980Z,10.07
2022-09-07T23:09:07.425Z,12.45
2022-09-07T23:11:34.545Z,13.63
2022-09-07T23:14:04.468Z,19.23
2022-09-07T23:16:31.557Z,15.93
2022-09-07T23:18:59.458Z,29.65
2022-09-07T23:21:27.350Z,33.22
2022-09-07T23:23:56.818Z,27.88
2022-09-07T23:26:25.929Z,36.03
2022-09-07T23:28:54.067Z,35.33
2022-09-07T23:31:22.168Z,36.22
2022-09-07T23:33:49.388Z,32.65
2022-09-07T23:36:17.540Z,32.40
2022-09-07T23:38:45.573Z,29.98
2022-09-07T23:41:14.108Z,26.65
2022-09-07T23:43:41.215Z,22.38
2022-09-07T23:46:08.337Z,21.83
2022-09-07T23:48:35.087Z,22.60
2022-09-07T23:51:02.156Z,25.25
2022-09-07T23:53:28.932Z,24.67
2022-09-07T23:55:55.673Z,21.48
2022-09-07T23:58:23.415Z,19.02
